Alliance, Nebraska
Current Conditions -  °F | °C
As of 1:53 PM on Thursday 20 Nov 2014 (Local Time) from KAIA Reporting Station
Clear Clear  
Wind Chill: 53°   Ceiling: Unl
Heat Index: 53°   Visibility: 10mi
Dew Point: 17°   Wind: 7mph
Humidity: 24%   Direction: 210°SSW
Pressure: 29.91"   Gusts: NA
Location:  42.1°N, 102.87°W
Report Text: KAIA 202053Z AUTO 21006KT 10SM CLR 12/M08 A2991 RMK AO2 SLP149 T01171083 56022
Loading
Personal Weather Stations






























Interactive Weather Map New forecast layout! Learn more

10-Day Weather Forecast

Advertisements
Track Severe Weather on mobile